createdAt,value
2023-03-07T00:00:50.434Z,62.73
2023-03-07T00:03:17.817Z,62.95
2023-03-07T00:05:44.720Z,63.19
2023-03-07T00:08:12.225Z,62.62
2023-03-07T00:10:38.953Z,62.32
2023-03-07T00:13:05.508Z,62.60
2023-03-07T00:15:32.100Z,63.24
2023-03-07T00:17:58.761Z,63.07
2023-03-07T00:20:25.366Z,63.79
2023-03-07T00:22:51.921Z,63.95
2023-03-07T00:25:18.615Z,64.38
2023-03-07T00:27:45.172Z,64.53
2023-03-07T00:32:46.997Z,64.62
2023-03-07T00:35:16.116Z,64.20
2023-03-07T00:37:42.805Z,64.21
2023-03-07T00:40:10.282Z,63.53
2023-03-07T00:42:36.847Z,62.75
2023-03-07T00:46:03.319Z,62.59
2023-03-07T00:48:52.336Z,63.17
2023-03-07T00:51:21.091Z,64.21
2023-03-07T00:53:48.606Z,64.11
2023-03-07T00:56:16.727Z,63.87
2023-03-07T00:58:43.843Z,64.26
2023-03-07T01:01:12.291Z,64.38
2023-03-07T01:06:16.379Z,64.37
2023-03-07T01:08:43.384Z,65.11
2023-03-07T01:11:10.830Z,64.87
2023-03-07T01:13:37.839Z,64.49
2023-03-07T01:16:25.354Z,63.86
2023-03-07T01:19:25.820Z,64.81
2023-03-07T01:22:42.316Z,64.91
2023-03-07T01:25:21.735Z,64.78
2023-03-07T01:28:21.599Z,65.34
2023-03-07T01:34:05.532Z,64.91
2023-03-07T01:36:55.499Z,65.40
2023-03-07T01:39:23.148Z,65.45
2023-03-07T01:41:49.743Z,65.57
2023-03-07T01:44:17.807Z,65.39
2023-03-07T01:46:55.239Z,65.26
2023-03-07T01:50:27.762Z,65.08
2023-03-07T01:53:01.913Z,65.05
2023-03-07T01:55:32.027Z,64.60
2023-03-07T01:58:04.406Z,64.38
2023-03-07T02:00:30.983Z,64.39
2023-03-07T02:03:10.783Z,63.61
2023-03-07T02:05:41.184Z,63.56
2023-03-07T02:10:49.956Z,62.48
2023-03-07T02:13:16.917Z,61.98
2023-03-07T02:15:43.644Z,61.86
2023-03-07T02:18:15.736Z,62.43
2023-03-07T02:20:42.208Z,62.19
2023-03-07T02:27:07.914Z,61.60
2023-03-07T02:29:34.580Z,61.35
2023-03-07T02:32:01.132Z,61.02
2023-03-07T02:34:30.845Z,60.90
2023-03-07T02:37:22.452Z,61.12
2023-03-07T02:39:49.097Z,61.31
2023-03-07T02:42:25.546Z,61.26
2023-03-07T02:45:01.027Z,61.21
2023-03-07T02:47:27.850Z,61.21
2023-03-07T02:49:55.120Z,61.17
2023-03-07T02:52:28.613Z,61.28
2023-03-07T02:54:55.806Z,61.55
2023-03-07T02:57:25.041Z,61.45
2023-03-07T02:59:51.667Z,61.40
2023-03-07T03:02:23.531Z,61.35
2023-03-07T03:05:09.856Z,61.36
2023-03-07T03:07:48.920Z,61.56
2023-03-07T03:10:16.303Z,61.58
2023-03-07T03:15:24.808Z,61.46
2023-03-07T03:17:54.930Z,61.34
2023-03-07T03:20:21.618Z,61.25
2023-03-07T03:22:48.223Z,61.39
2023-03-07T03:25:15.225Z,61.64
2023-03-07T03:27:42.051Z,61.59
2023-03-07T03:30:12.429Z,61.58
2023-03-07T03:32:40.231Z,62.36
2023-03-07T03:35:07.726Z,62.55
2023-03-07T03:38:18.602Z,62.48
2023-03-07T03:41:19.530Z,62.34
2023-03-07T03:43:46.301Z,62.08
2023-03-07T03:46:13.094Z,62.52
2023-03-07T03:48:40.661Z,62.23
2023-03-07T03:51:16.224Z,61.80
2023-03-07T03:53:42.803Z,61.75
2023-03-07T03:56:21.307Z,61.61
2023-03-07T03:58:53.326Z,61.40
2023-03-07T04:01:22.495Z,61.60
2023-03-07T04:03:51.292Z,61.48
2023-03-07T04:06:21.272Z,61.23
2023-03-07T04:09:00.544Z,60.89
2023-03-07T04:11:42.524Z,61.16
2023-03-07T04:14:09.137Z,61.14
2023-03-07T04:16:35.789Z,61.01
2023-03-07T04:19:02.784Z,61.00
2023-03-07T04:21:29.335Z,61.00
2023-03-07T04:23:58.311Z,60.76
2023-03-07T04:29:06.817Z,60.99
2023-03-07T04:31:33.452Z,61.09
2023-03-07T04:34:00.078Z,60.60
2023-03-07T04:36:26.839Z,60.10
2023-03-07T04:38:53.455Z,59.86
2023-03-07T04:45:27.603Z,59.52
2023-03-07T04:47:54.159Z,59.53
2023-03-07T04:50:20.973Z,59.62
2023-03-07T04:52:47.577Z,59.48
2023-03-07T04:55:15.012Z,59.97
2023-03-07T04:57:42.005Z,59.94
2023-03-07T05:00:10.215Z,60.00
2023-03-07T05:02:37.858Z,59.91
2023-03-07T05:05:05.645Z,59.79
2023-03-07T05:07:32.848Z,60.20
2023-03-07T05:09:59.629Z,60.52
2023-03-07T05:12:26.162Z,60.61
2023-03-07T05:14:55.256Z,60.30
2023-03-07T05:17:41.941Z,60.00
2023-03-07T05:20:14.145Z,59.98
2023-03-07T05:22:40.773Z,59.99
2023-03-07T05:25:10.639Z,60.40
2023-03-07T05:27:37.299Z,60.49
2023-03-07T05:30:05.842Z,60.47
2023-03-07T05:32:35.097Z,60.33
2023-03-07T05:35:12.427Z,60.49
2023-03-07T05:37:38.974Z,60.53
2023-03-07T05:40:15.371Z,60.27
2023-03-07T05:42:41.924Z,60.36
2023-03-07T05:45:17.589Z,60.33
2023-03-07T05:48:09.714Z,60.80
2023-03-07T05:50:46.703Z,60.49
2023-03-07T05:53:13.329Z,60.34
2023-03-07T05:55:39.877Z,60.43
2023-03-07T05:58:06.637Z,60.44
2023-03-07T06:00:33.250Z,60.33
2023-03-07T06:03:04.794Z,60.25
2023-03-07T06:05:31.484Z,60.17
2023-03-07T06:08:00.131Z,60.02
2023-03-07T06:10:27.113Z,59.95
2023-03-07T06:12:54.811Z,59.91
2023-03-07T06:15:24.613Z,59.78
2023-03-07T06:17:52.710Z,59.78
2023-03-07T06:20:20.968Z,59.81
2023-03-07T06:22:48.872Z,59.91
2023-03-07T06:25:16.888Z,59.78
2023-03-07T06:27:43.526Z,59.63
2023-03-07T06:30:12.343Z,59.32
2023-03-07T06:32:38.961Z,59.24
2023-03-07T06:35:06.024Z,59.30
2023-03-07T06:37:32.619Z,58.73
2023-03-07T06:39:59.190Z,58.39
2023-03-07T06:42:25.777Z,57.89
2023-03-07T06:44:52.314Z,57.46
2023-03-07T06:47:18.853Z,57.19
2023-03-07T06:54:56.049Z,56.57
2023-03-07T06:57:22.665Z,55.87
2023-03-07T06:59:49.205Z,55.67
2023-03-07T07:02:15.905Z,56.27
2023-03-07T07:04:42.523Z,56.08
2023-03-07T07:07:31.126Z,55.31
2023-03-07T07:10:19.404Z,56.49
2023-03-07T07:12:47.424Z,57.02
2023-03-07T07:15:13.986Z,56.26
2023-03-07T07:17:40.584Z,56.69
2023-03-07T07:20:11.278Z,55.63
2023-03-07T07:22:37.843Z,56.19
2023-03-07T07:25:04.926Z,56.36
2023-03-07T07:27:31.620Z,56.25
2023-03-07T07:29:58.235Z,54.33
2023-03-07T07:32:24.959Z,53.71
2023-03-07T07:34:51.681Z,53.52
2023-03-07T07:37:18.349Z,53.37
2023-03-07T07:39:45.299Z,52.68
2023-03-07T07:42:12.534Z,52.02
2023-03-07T07:44:39.107Z,51.40
2023-03-07T07:47:05.832Z,51.89
2023-03-07T07:49:32.468Z,50.94
2023-03-07T07:51:59.146Z,50.69
2023-03-07T07:57:22.642Z,50.60
2023-03-07T07:59:49.837Z,50.38
2023-03-07T08:02:16.441Z,50.12
2023-03-07T08:04:43.182Z,49.78
2023-03-07T08:07:09.810Z,50.37
2023-03-07T08:12:29.991Z,48.71
2023-03-07T08:15:24.579Z,48.67
2023-03-07T08:17:51.421Z,47.79
2023-03-07T08:20:22.268Z,47.52
2023-03-07T08:22:50.604Z,47.35
2023-03-07T08:25:33.714Z,46.90
2023-03-07T08:28:03.217Z,47.08
2023-03-07T08:30:32.114Z,47.86
2023-03-07T08:32:59.238Z,48.10
2023-03-07T08:35:27.312Z,46.92
2023-03-07T08:37:55.794Z,46.28
2023-03-07T08:40:24.860Z,45.67
2023-03-07T08:42:51.918Z,45.22
2023-03-07T08:45:18.586Z,44.22
2023-03-07T08:47:45.432Z,43.94
2023-03-07T08:50:12.359Z,43.64
2023-03-07T08:52:38.929Z,44.31
2023-03-07T08:55:06.033Z,43.60
2023-03-07T08:57:33.426Z,43.85
2023-03-07T09:00:08.850Z,43.64
2023-03-07T09:02:50.581Z,44.81
2023-03-07T09:05:39.143Z,44.79
2023-03-07T09:08:07.233Z,45.02
2023-03-07T09:10:35.345Z,44.38
2023-03-07T09:13:01.979Z,43.10
2023-03-07T09:15:28.587Z,42.94
2023-03-07T09:17:55.222Z,43.85
2023-03-07T09:20:22.194Z,43.55
2023-03-07T09:22:48.855Z,43.20
2023-03-07T09:25:15.469Z,43.22
2023-03-07T09:27:45.453Z,42.33
2023-03-07T09:30:13.680Z,42.15
2023-03-07T09:32:40.563Z,42.34
2023-03-07T09:35:25.940Z,40.76
2023-03-07T09:38:16.644Z,41.53
2023-03-07T09:41:09.735Z,40.19
2023-03-07T09:43:59.529Z,41.11
2023-03-07T09:47:11.661Z,39.25
2023-03-07T09:49:47.196Z,38.43
2023-03-07T09:52:17.888Z,39.06
2023-03-07T09:55:01.627Z,39.02
2023-03-07T09:57:31.662Z,38.88
2023-03-07T10:00:28.122Z,39.06
2023-03-07T10:03:04.092Z,39.18
2023-03-07T10:05:51.052Z,40.09
2023-03-07T10:09:05.498Z,39.44
2023-03-07T10:11:50.152Z,38.37
2023-03-07T10:14:25.222Z,37.93
2023-03-07T10:16:52.005Z,38.43
2023-03-07T10:19:58.921Z,37.28
2023-03-07T10:25:31.631Z,36.25
2023-03-07T10:28:11.885Z,36.87
2023-03-07T10:30:38.624Z,35.82
2023-03-07T10:33:16.187Z,34.83
2023-03-07T10:35:45.470Z,33.47
2023-03-07T10:38:18.144Z,33.90
2023-03-07T10:40:56.807Z,36.10
2023-03-07T10:43:27.361Z,34.32
2023-03-07T10:46:23.721Z,35.58
2023-03-07T10:49:04.092Z,34.40
2023-03-07T10:51:50.660Z,36.21
2023-03-07T10:54:20.906Z,35.91
2023-03-07T10:57:07.498Z,36.90
2023-03-07T10:59:35.233Z,36.86
2023-03-07T11:02:05.913Z,37.27
2023-03-07T11:04:45.706Z,38.24
2023-03-07T11:07:32.811Z,39.52
2023-03-07T11:10:01.865Z,39.47
2023-03-07T11:12:31.924Z,46.35
2023-03-07T11:15:12.204Z,47.65
2023-03-07T11:17:45.110Z,46.85
2023-03-07T11:20:25.654Z,47.33
2023-03-07T11:23:30.855Z,48.60
2023-03-07T11:26:18.738Z,48.83
2023-03-07T11:28:45.320Z,48.58
2023-03-07T11:31:26.353Z,48.36
2023-03-07T11:34:17.638Z,48.58
2023-03-07T11:36:48.738Z,48.77
2023-03-07T11:39:18.035Z,49.42
2023-03-07T11:41:54.886Z,48.58
2023-03-07T11:44:44.296Z,48.24
2023-03-07T11:48:03.097Z,48.06
2023-03-07T11:50:32.411Z,47.41
2023-03-07T11:53:01.784Z,46.46
2023-03-07T11:55:47.128Z,46.09
2023-03-07T11:58:52.789Z,45.50
2023-03-07T12:01:40.814Z,46.99
2023-03-07T12:04:34.806Z,44.73
2023-03-07T12:07:19.479Z,43.12
2023-03-07T12:10:20.137Z,43.35
2023-03-07T12:12:56.686Z,43.85
2023-03-07T12:16:11.678Z,43.88
2023-03-07T12:19:04.468Z,43.61
2023-03-07T12:24:57.557Z,45.48
2023-03-07T12:27:32.569Z,45.08
2023-03-07T12:30:04.870Z,44.14
2023-03-07T12:32:35.772Z,44.11
2023-03-07T12:35:25.673Z,43.71
2023-03-07T12:37:52.166Z,43.79
2023-03-07T12:40:23.432Z,43.63
2023-03-07T12:43:10.540Z,43.37
2023-03-07T12:45:51.201Z,43.25
2023-03-07T12:48:56.949Z,44.46
2023-03-07T12:51:36.945Z,46.99
2023-03-07T12:54:06.237Z,47.78
2023-03-07T12:56:43.929Z,48.66
2023-03-07T12:59:16.017Z,48.22
2023-03-07T13:02:08.908Z,47.65
2023-03-07T13:04:38.398Z,48.91
2023-03-07T13:07:37.299Z,49.50
2023-03-07T13:10:06.903Z,50.17
2023-03-07T13:12:35.772Z,50.56
2023-03-07T13:15:17.477Z,50.11
2023-03-07T13:17:43.968Z,50.86
2023-03-07T13:20:19.307Z,50.03
2023-03-07T13:22:45.876Z,49.75
2023-03-07T13:25:56.345Z,50.68
2023-03-07T13:29:00.233Z,51.28
2023-03-07T13:31:37.240Z,50.89
2023-03-07T13:34:54.798Z,50.51
2023-03-07T13:37:50.148Z,49.76
2023-03-07T13:40:48.948Z,50.23
2023-03-07T13:43:27.470Z,49.93
2023-03-07T13:45:58.986Z,49.64
2023-03-07T13:48:31.347Z,49.25
2023-03-07T13:51:06.666Z,49.96
2023-03-07T13:53:48.489Z,49.97
2023-03-07T13:56:19.992Z,51.32
2023-03-07T13:58:48.749Z,52.16
2023-03-07T14:02:03.914Z,52.28
2023-03-07T14:04:41.054Z,53.94
2023-03-07T14:07:28.088Z,52.92
2023-03-07T14:10:09.901Z,53.19
2023-03-07T14:13:11.919Z,53.97
2023-03-07T14:15:45.024Z,53.84
2023-03-07T14:18:29.584Z,54.09
2023-03-07T14:21:17.856Z,54.23
2023-03-07T14:24:05.900Z,54.70
2023-03-07T14:26:37.660Z,54.24
2023-03-07T14:29:23.854Z,54.46
2023-03-07T14:31:57.190Z,53.51
2023-03-07T14:34:30.888Z,54.80
2023-03-07T14:37:05.476Z,56.19
2023-03-07T14:39:48.414Z,55.66
2023-03-07T14:42:20.875Z,56.00
2023-03-07T14:44:58.702Z,55.54
2023-03-07T14:47:30.150Z,54.84
2023-03-07T14:50:15.874Z,54.49
2023-03-07T14:52:43.386Z,54.90
2023-03-07T14:55:19.919Z,55.38
2023-03-07T14:57:52.606Z,57.51
2023-03-07T15:00:25.356Z,56.21
2023-03-07T15:02:55.588Z,56.31
2023-03-07T15:05:28.138Z,56.48
2023-03-07T15:07:55.086Z,57.35
2023-03-07T15:10:40.718Z,57.62
2023-03-07T15:13:42.351Z,57.66
2023-03-07T15:16:16.021Z,59.24
2023-03-07T15:18:49.801Z,60.03
2023-03-07T15:21:20.030Z,59.65
2023-03-07T15:23:56.313Z,59.00
2023-03-07T15:26:26.343Z,60.31
2023-03-07T15:29:09.034Z,61.13
2023-03-07T15:31:53.582Z,61.75
2023-03-07T15:34:40.434Z,61.53
2023-03-07T15:37:26.948Z,59.60
2023-03-07T15:40:01.381Z,60.02
2023-03-07T15:42:29.019Z,60.43
2023-03-07T15:45:00.975Z,60.77
2023-03-07T15:47:29.999Z,60.99
2023-03-07T15:49:58.820Z,60.88
2023-03-07T15:52:37.634Z,59.55
2023-03-07T15:55:16.200Z,59.00
2023-03-07T15:57:52.600Z,57.31
2023-03-07T16:00:26.751Z,59.29
2023-03-07T16:02:53.421Z,57.93
2023-03-07T16:05:20.791Z,59.26
2023-03-07T16:07:49.205Z,58.93
2023-03-07T16:10:16.085Z,59.28
2023-03-07T16:12:46.602Z,58.84
2023-03-07T16:15:17.760Z,59.58
2023-03-07T16:17:45.012Z,58.67
2023-03-07T16:20:17.163Z,58.24
2023-03-07T16:22:44.482Z,58.48
2023-03-07T16:25:15.650Z,58.57
2023-03-07T16:27:51.645Z,59.94
2023-03-07T16:30:25.050Z,61.02
2023-03-07T16:32:52.341Z,62.43
2023-03-07T16:35:24.485Z,63.91
2023-03-07T16:37:51.546Z,61.81
2023-03-07T16:40:18.327Z,59.87
2023-03-07T16:42:46.848Z,59.68
2023-03-07T16:45:23.789Z,59.28
2023-03-07T16:47:58.653Z,58.47
2023-03-07T16:50:33.379Z,59.80
2023-03-07T16:53:00.428Z,61.38
2023-03-07T16:55:27.117Z,60.98
2023-03-07T16:58:03.100Z,60.23
2023-03-07T17:00:29.914Z,60.42
2023-03-07T17:02:59.923Z,60.64
2023-03-07T17:05:28.696Z,60.85
2023-03-07T17:07:57.293Z,60.10
2023-03-07T17:10:26.511Z,59.12
2023-03-07T17:12:55.085Z,59.27
2023-03-07T17:15:30.295Z,59.43
2023-03-07T17:17:58.025Z,59.44
2023-03-07T17:20:24.856Z,60.23
2023-03-07T17:22:52.319Z,59.10
2023-03-07T17:25:21.519Z,57.89
2023-03-07T17:28:08.453Z,57.00
2023-03-07T17:30:35.113Z,58.20
2023-03-07T17:33:01.809Z,58.19
2023-03-07T17:35:28.642Z,57.67
2023-03-07T17:37:55.716Z,57.48
2023-03-07T17:40:22.745Z,57.37
2023-03-07T17:42:51.130Z,56.78
2023-03-07T17:45:18.448Z,57.56
2023-03-07T17:47:45.035Z,57.36
2023-03-07T17:50:12.263Z,57.51
2023-03-07T17:52:38.845Z,58.61
2023-03-07T17:55:09.571Z,59.13
2023-03-07T17:57:36.771Z,59.51
2023-03-07T18:00:08.735Z,59.33
2023-03-07T18:02:35.363Z,60.04
2023-03-07T18:05:01.996Z,60.42
2023-03-07T18:07:28.609Z,62.73
2023-03-07T18:10:07.154Z,63.33
2023-03-07T18:12:39.238Z,63.01
2023-03-07T18:15:08.343Z,62.36
2023-03-07T18:17:46.948Z,63.82
2023-03-07T18:20:15.227Z,64.26
2023-03-07T18:22:42.864Z,63.27
2023-03-07T18:25:12.869Z,62.82
2023-03-07T18:27:39.504Z,64.39
2023-03-07T18:30:06.632Z,62.42
2023-03-07T18:32:34.283Z,61.83
2023-03-07T18:35:01.103Z,60.97
2023-03-07T18:37:39.546Z,60.59
2023-03-07T18:40:06.996Z,60.10
2023-03-07T18:42:34.302Z,59.71
2023-03-07T18:45:00.879Z,59.48
2023-03-07T18:47:27.468Z,59.32
2023-03-07T18:49:54.079Z,59.16
2023-03-07T18:52:20.700Z,59.10
2023-03-07T18:54:48.534Z,59.17
2023-03-07T18:57:15.275Z,59.08
2023-03-07T18:59:41.857Z,59.09
2023-03-07T19:02:10.147Z,59.21
2023-03-07T19:04:36.796Z,59.25
2023-03-07T19:07:04.102Z,59.68
2023-03-07T19:09:31.652Z,59.94
2023-03-07T19:11:58.288Z,59.44
2023-03-07T19:14:26.382Z,59.04
2023-03-07T19:16:53.168Z,58.86
2023-03-07T19:19:19.787Z,58.69
2023-03-07T19:21:46.345Z,59.52
2023-03-07T19:24:13.067Z,59.75
2023-03-07T19:26:40.944Z,60.40
2023-03-07T19:29:09.710Z,60.22
2023-03-07T19:31:36.442Z,60.97
2023-03-07T19:34:05.102Z,60.33
2023-03-07T19:36:35.235Z,60.23
2023-03-07T19:39:02.255Z,61.60
2023-03-07T19:41:31.437Z,61.23
2023-03-07T19:43:59.713Z,60.65
2023-03-07T19:46:26.922Z,62.51
2023-03-07T19:48:54.023Z,61.73
2023-03-07T19:51:23.362Z,60.98
2023-03-07T19:53:51.231Z,61.13
2023-03-07T19:56:22.260Z,60.57
2023-03-07T19:58:49.178Z,59.96
2023-03-07T20:01:21.544Z,59.37
2023-03-07T20:03:49.013Z,58.73
2023-03-07T20:06:20.005Z,58.64
2023-03-07T20:08:51.463Z,58.65
2023-03-07T20:11:20.554Z,59.18
2023-03-07T20:13:50.663Z,59.72
2023-03-07T20:16:20.377Z,59.27
2023-03-07T20:18:51.646Z,58.80
2023-03-07T20:21:19.941Z,59.78
2023-03-07T20:23:48.395Z,59.90
2023-03-07T20:26:24.791Z,59.30
2023-03-07T20:28:52.762Z,59.76
2023-03-07T20:31:20.334Z,60.19
2023-03-07T20:33:47.117Z,59.49
2023-03-07T20:36:19.503Z,60.32
2023-03-07T20:38:51.057Z,59.35
2023-03-07T20:41:20.982Z,60.95
2023-03-07T20:43:48.342Z,61.18
2023-03-07T20:46:16.892Z,60.02
2023-03-07T20:48:44.186Z,59.68
2023-03-07T20:51:23.347Z,59.30
2023-03-07T20:54:06.613Z,59.09
2023-03-07T20:56:34.431Z,58.75
2023-03-07T20:59:16.793Z,58.70
2023-03-07T21:01:56.973Z,59.38
2023-03-07T21:04:27.128Z,62.77
2023-03-07T21:06:53.782Z,60.98
2023-03-07T21:09:20.544Z,59.99
2023-03-07T21:12:00.757Z,59.82
2023-03-07T21:14:27.613Z,59.33
2023-03-07T21:16:54.171Z,60.45
2023-03-07T21:19:23.415Z,60.17
2023-03-07T21:21:49.976Z,59.65
2023-03-07T21:24:16.614Z,59.18
2023-03-07T21:26:43.375Z,59.65
2023-03-07T21:29:10.885Z,59.49
2023-03-07T21:31:38.805Z,59.21
2023-03-07T21:36:56.348Z,59.11
2023-03-07T21:39:24.203Z,60.37
2023-03-07T21:41:51.263Z,60.37
2023-03-07T21:44:18.004Z,60.94
2023-03-07T21:46:45.264Z,59.99
2023-03-07T21:49:36.629Z,59.76
2023-03-07T21:52:21.522Z,59.84
2023-03-07T21:54:48.114Z,60.61
2023-03-07T21:57:14.694Z,60.24
2023-03-07T21:59:41.508Z,60.91
2023-03-07T22:02:10.562Z,60.28
2023-03-07T22:04:37.248Z,60.36
2023-03-07T22:10:07.325Z,60.38
2023-03-07T22:15:29.326Z,61.11
2023-03-07T22:20:31.841Z,60.70
2023-03-07T22:24:18.111Z,60.84
2023-03-07T22:27:05.977Z,61.92
2023-03-07T22:29:33.067Z,62.20
2023-03-07T22:32:01.566Z,62.34
2023-03-07T22:34:29.380Z,62.08
2023-03-07T22:36:57.470Z,61.71
2023-03-07T22:39:39.435Z,61.31
2023-03-07T22:42:06.197Z,61.19
2023-03-07T22:44:32.796Z,61.25
2023-03-07T22:46:59.735Z,62.06
2023-03-07T22:49:30.387Z,62.32
2023-03-07T22:51:57.196Z,63.19
2023-03-07T22:54:23.911Z,64.44
2023-03-07T22:56:50.445Z,64.24
2023-03-07T22:59:17.023Z,65.10
2023-03-07T23:01:43.651Z,65.52
2023-03-07T23:04:25.754Z,65.63
2023-03-07T23:07:27.346Z,65.34
2023-03-07T23:09:53.919Z,64.61
2023-03-07T23:12:38.723Z,64.53
2023-03-07T23:15:05.722Z,65.70
2023-03-07T23:17:32.353Z,65.34
2023-03-07T23:19:58.963Z,64.47
2023-03-07T23:22:43.795Z,65.38
2023-03-07T23:25:11.279Z,65.10
2023-03-07T23:27:37.952Z,66.08
2023-03-07T23:30:06.351Z,66.02
2023-03-07T23:32:45.876Z,66.52
2023-03-07T23:38:12.112Z,67.58
2023-03-07T23:40:39.188Z,67.98
2023-03-07T23:43:06.441Z,68.54
2023-03-07T23:45:33.233Z,68.78
2023-03-07T23:47:59.790Z,68.55
2023-03-07T23:50:26.337Z,69.14
2023-03-07T23:52:58.241Z,68.75
2023-03-07T23:55:24.881Z,68.32
2023-03-07T23:57:51.598Z,68.55
